Time;durP1;ratioP1;P1;durP2;ratioP2;P2;SDS_P1;SDS_P2;PMS_P1;PMS_P2;Temp;Humidity;BMP_temperature;BMP_pressure;BME280_temperature;BME280_humidity;BME280_pressure;Samples;Min_cycle;Max_cycle;Signal;HPM_P1;HPM_P2
2021/04/16 00:01:41;;;;;;;7.23;5.67;;;6.10;99.90;;;;;;5112698;28;20174;-77
2021/04/16 00:04:07;;;;;;;7.90;5.63;;;6.10;99.90;;;;;;5112799;28;20173;-73
2021/04/16 00:06:32;;;;;;;6.20;5.60;;;6.00;99.90;;;;;;5113955;28;20193;-76
2021/04/16 00:08:58;;;;;;;7.70;5.23;;;6.10;99.90;;;;;;5113979;28;20225;-76
2021/04/16 00:11:26;;;;;;;9.00;5.73;;;6.10;99.90;;;;;;5112654;28;20198;-76
2021/04/16 00:13:52;;;;;;;8.57;5.77;;;6.10;99.90;;;;;;5114092;28;20617;-76
2021/04/16 00:16:21;;;;;;;9.37;5.07;;;6.20;99.90;;;;;;5113801;28;20222;-76
2021/04/16 00:18:47;;;;;;;6.20;5.10;;;6.20;99.90;;;;;;5114090;28;20177;-76
2021/04/16 00:21:13;;;;;;;13.50;6.03;;;6.30;99.90;;;;;;5114000;28;20215;-76
2021/04/16 00:23:39;;;;;;;11.00;5.57;;;6.30;99.90;;;;;;5113495;28;20545;-76
2021/04/16 00:26:06;;;;;;;13.53;5.63;;;6.10;99.90;;;;;;5126177;28;20173;-77
2021/04/16 00:28:32;;;;;;;6.47;5.03;;;6.00;99.90;;;;;;5134367;28;20522;-76
2021/04/16 00:31:02;;;;;;;9.53;5.40;;;6.00;99.90;;;;;;5132519;28;20165;-77
2021/04/16 00:33:29;;;;;;;6.82;5.43;;;6.00;99.90;;;;;;5097854;28;20192;-76
2021/04/16 00:35:55;;;;;;;6.07;5.47;;;5.90;99.90;;;;;;5113555;28;20251;-76
2021/04/16 00:38:22;;;;;;;6.37;5.77;;;5.90;99.90;;;;;;5113780;28;20179;-77
2021/04/16 00:40:52;;;;;;;8.63;5.80;;;5.90;99.90;;;;;;5112580;28;20172;-76
2021/04/16 00:43:21;;;;;;;6.33;5.73;;;5.90;99.90;;;;;;5113841;28;20513;-77
2021/04/16 00:45:48;;;;;;;27.00;6.43;;;6.00;99.90;;;;;;5116318;28;20197;-76
2021/04/16 00:48:32;;;;;;;8.53;5.90;;;6.00;99.90;;;;;;5099654;28;20165;-76
2021/04/16 00:51:02;;;;;;;9.80;6.60;;;6.10;99.90;;;;;;5117536;28;20162;-76
2021/04/16 00:53:28;;;;;;;7.40;5.97;;;6.10;99.90;;;;;;5117722;28;20230;-76
2021/04/16 00:55:54;;;;;;;5.95;5.40;;;6.10;99.90;;;;;;5117121;28;20637;-77
2021/04/16 00:58:23;;;;;;;14.63;6.83;;;6.00;99.90;;;;;;5099567;28;20315;-77
2021/04/16 01:00:53;;;;;;;9.30;5.20;;;5.90;99.90;;;;;;5117843;28;20568;-76
2021/04/16 01:03:19;;;;;;;6.57;5.70;;;5.90;99.90;;;;;;5116160;28;20599;-76
2021/04/16 01:05:44;;;;;;;10.30;5.73;;;5.90;99.90;;;;;;5117405;28;20261;-76
2021/04/16 01:08:11;;;;;;;6.17;5.57;;;5.80;99.90;;;;;;5117189;28;20282;-76
2021/04/16 01:10:37;;;;;;;6.97;6.10;;;5.80;99.90;;;;;;5117119;28;20169;-76
2021/04/16 01:13:04;;;;;;;8.57;6.10;;;5.80;99.90;;;;;;5115680;28;20254;-76
2021/04/16 01:15:34;;;;;;;12.77;5.93;;;5.90;99.90;;;;;;5116133;28;20252;-76
2021/04/16 01:18:21;;;;;;;12.90;6.50;;;5.90;99.90;;;;;;5115762;28;20162;-76
2021/04/16 01:20:49;;;;;;;6.93;5.83;;;5.70;99.90;;;;;;5129562;27;20170;-76
2021/04/16 01:23:41;;;;;;;11.50;6.50;;;5.70;99.90;;;;;;5102520;28;20203;-77
2021/04/16 01:26:11;;;;;;;5.70;5.07;;;5.70;99.90;;;;;;5117411;28;20214;-76
2021/04/16 01:28:36;;;;;;;9.20;5.63;;;5.70;99.90;;;;;;5116801;28;20165;-76
2021/04/16 01:31:12;;;;;;;8.47;6.33;;;5.70;99.90;;;;;;5115652;28;20226;-76
2021/04/16 01:33:40;;;;;;;7.33;6.27;;;5.70;99.90;;;;;;5116871;28;20181;-76
2021/04/16 01:36:08;;;;;;;11.30;6.30;;;5.60;99.90;;;;;;5116654;28;20176;-76
2021/04/16 01:38:34;;;;;;;12.00;5.73;;;5.50;99.90;;;;;;5115365;28;20193;-76
2021/04/16 01:41:00;;;;;;;11.13;5.63;;;5.30;99.90;;;;;;5116915;28;20166;-76
2021/04/16 01:43:27;;;;;;;8.53;6.47;;;5.20;99.90;;;;;;5116814;28;20193;-76
2021/04/16 01:46:02;;;;;;;7.37;6.23;;;5.20;99.90;;;;;;5116752;28;20246;-76
2021/04/16 01:48:41;;;;;;;6.10;5.50;;;5.10;99.90;;;;;;5116285;28;20177;-76
2021/04/16 01:51:09;;;;;;;8.27;5.93;;;5.00;99.90;;;;;;5116865;28;20165;-74
2021/04/16 01:53:34;;;;;;;7.63;5.73;;;4.90;99.90;;;;;;5116369;28;20170;-76
2021/04/16 01:56:00;;;;;;;9.97;5.90;;;4.80;99.90;;;;;;5116282;28;20260;-76
2021/04/16 01:58:26;;;;;;;7.33;5.20;;;4.90;99.90;;;;;;5116588;28;20252;-76
2021/04/16 02:00:53;;;;;;;7.80;5.10;;;4.70;99.90;;;;;;5114884;28;20271;-75
2021/04/16 02:03:19;;;;;;;11.93;6.07;;;4.60;99.90;;;;;;5115068;28;20599;-76
2021/04/16 02:05:45;;;;;;;15.43;6.00;;;4.60;99.90;;;;;;5116259;28;20218;-77
2021/04/16 02:08:10;;;;;;;14.47;6.00;;;4.50;99.90;;;;;;5116113;28;20532;-76
2021/04/16 02:10:36;;;;;;;7.97;5.77;;;4.50;99.90;;;;;;5115856;28;20259;-76
2021/04/16 02:13:05;;;;;;;8.27;6.17;;;4.50;99.90;;;;;;5116169;28;20200;-76
2021/04/16 02:15:30;;;;;;;7.20;5.73;;;4.50;99.90;;;;;;5115531;28;20181;-76
2021/04/16 02:17:56;;;;;;;15.00;5.80;;;4.60;99.90;;;;;;5116104;28;20165;-76
2021/04/16 02:20:25;;;;;;;6.93;5.70;;;4.60;99.90;;;;;;5114629;28;20177;-76
2021/04/16 02:22:51;;;;;;;6.00;5.50;;;4.50;99.90;;;;;;5115997;28;20172;-76
2021/04/16 02:25:17;;;;;;;13.20;6.47;;;4.40;99.90;;;;;;5114737;28;20174;-76
2021/04/16 02:27:43;;;;;;;8.60;5.30;;;4.30;99.90;;;;;;5114691;28;20268;-76
2021/04/16 02:30:26;;;;;;;7.00;5.67;;;4.30;99.90;;;;;;5115765;28;20165;-76
2021/04/16 02:32:52;;;;;;;6.67;5.63;;;4.30;99.90;;;;;;5115009;28;20223;-76
2021/04/16 02:35:18;;;;;;;7.80;6.40;;;4.20;99.90;;;;;;5114462;28;20174;-76
2021/04/16 02:37:44;;;;;;;9.77;5.90;;;4.20;99.90;;;;;;5115723;28;20257;-77
2021/04/16 02:40:13;;;;;;;6.43;5.53;;;4.20;99.90;;;;;;5096947;28;20600;-76
2021/04/16 02:42:39;;;;;;;7.07;5.23;;;4.20;99.90;;;;;;5115362;28;20177;-76
2021/04/16 02:45:07;;;;;;;11.50;5.50;;;4.10;99.90;;;;;;5115399;28;20223;-75
2021/04/16 02:47:33;;;;;;;8.37;5.57;;;4.10;99.90;;;;;;5114218;28;20214;-77
2021/04/16 02:49:59;;;;;;;8.87;5.83;;;4.00;99.90;;;;;;5115179;28;20173;-76
2021/04/16 02:52:25;;;;;;;7.70;4.90;;;4.00;99.90;;;;;;5114101;28;20253;-76
2021/04/16 02:54:50;;;;;;;5.90;5.13;;;3.90;99.90;;;;;;5115388;28;20551;-76
2021/04/16 02:57:16;;;;;;;7.13;4.80;;;4.00;99.90;;;;;;5113924;28;20169;-76
2021/04/16 02:59:41;;;;;;;10.63;6.73;;;4.00;99.90;;;;;;5113976;28;20180;-76
2021/04/16 03:02:07;;;;;;;8.43;5.67;;;3.90;99.90;;;;;;5096915;28;20208;-76
2021/04/16 03:04:33;;;;;;;6.57;5.60;;;4.00;99.90;;;;;;5097021;28;20180;-76
2021/04/16 03:06:59;;;;;;;9.67;5.47;;;4.00;99.90;;;;;;5113296;28;20215;-76
2021/04/16 03:09:24;;;;;;;9.43;5.87;;;3.90;99.90;;;;;;5114803;28;20180;-76
2021/04/16 03:11:50;;;;;;;8.13;5.37;;;4.00;99.90;;;;;;5114529;28;20216;-76
2021/04/16 03:14:18;;;;;;;10.10;5.87;;;3.90;99.90;;;;;;5114814;28;20207;-77
2021/04/16 03:16:43;;;;;;;19.60;5.60;;;3.90;99.90;;;;;;5099391;28;20176;-76
2021/04/16 03:19:11;;;;;;;8.20;5.93;;;3.80;99.90;;;;;;5113655;28;20169;-76
2021/04/16 03:21:36;;;;;;;7.47;5.70;;;3.80;99.90;;;;;;5113730;28;20164;-76
2021/04/16 03:24:03;;;;;;;6.87;5.70;;;3.80;99.90;;;;;;5113671;28;20570;-76
2021/04/16 03:26:29;;;;;;;5.23;4.60;;;3.80;99.90;;;;;;5114554;28;20609;-76
2021/04/16 03:28:56;;;;;;;15.00;5.07;;;3.80;99.90;;;;;;5114536;28;20234;-76
2021/04/16 03:31:23;;;;;;;11.90;5.40;;;3.80;99.90;;;;;;5114875;28;20178;-76
2021/04/16 03:33:49;;;;;;;8.57;5.73;;;3.80;99.90;;;;;;5114851;28;20181;-76
2021/04/16 03:36:14;;;;;;;7.43;5.20;;;3.80;99.90;;;;;;5114189;28;20195;-76
2021/04/16 03:38:40;;;;;;;9.33;5.60;;;3.80;99.90;;;;;;5113330;27;20178;-76
2021/04/16 03:41:06;;;;;;;8.60;6.03;;;3.70;99.90;;;;;;5114411;28;20173;-76
2021/04/16 03:43:32;;;;;;;7.10;5.10;;;3.70;99.90;;;;;;5113012;28;20225;-76
2021/04/16 03:45:57;;;;;;;6.40;4.80;;;3.60;99.90;;;;;;5112952;28;20173;-76
2021/04/16 03:48:23;;;;;;;6.40;5.33;;;3.60;99.90;;;;;;5114164;28;20177;-77
2021/04/16 03:50:49;;;;;;;6.27;5.67;;;3.60;99.90;;;;;;5114066;28;20169;-76
2021/04/16 03:53:15;;;;;;;6.83;5.57;;;3.60;99.90;;;;;;5112815;28;20648;-76
2021/04/16 03:55:40;;;;;;;5.27;4.87;;;3.60;99.90;;;;;;5112842;28;20264;-75
2021/04/16 03:58:08;;;;;;;7.73;5.07;;;3.60;99.90;;;;;;5096170;28;20588;-76
2021/04/16 04:00:36;;;;;;;5.83;4.83;;;3.60;99.90;;;;;;5112936;28;20170;-75
2021/04/16 04:03:04;;;;;;;7.23;5.20;;;3.60;99.90;;;;;;5114051;28;20264;-77
2021/04/16 04:05:29;;;;;;;11.80;5.00;;;3.60;99.90;;;;;;5112516;28;20173;-76
2021/04/16 04:07:55;;;;;;;6.97;5.20;;;3.70;99.90;;;;;;5112774;28;20176;-76
2021/04/16 04:10:23;;;;;;;7.93;5.63;;;3.70;99.90;;;;;;5114003;28;20169;-76
2021/04/16 04:12:49;;;;;;;7.00;5.37;;;3.60;99.90;;;;;;5113715;28;20579;-77
2021/04/16 04:15:17;;;;;;;6.57;5.30;;;3.50;99.90;;;;;;5112464;28;20177;-76
2021/04/16 04:17:43;;;;;;;6.37;5.67;;;3.50;99.90;;;;;;5112515;28;20269;-76
2021/04/16 04:20:14;;;;;;;6.87;6.07;;;3.40;99.90;;;;;;5112068;28;20196;-75
2021/04/16 04:22:40;;;;;;;12.43;5.77;;;3.50;99.90;;;;;;5113849;28;20183;-76
2021/04/16 04:25:06;;;;;;;6.17;5.53;;;3.40;99.90;;;;;;5114037;28;20173;-76
2021/04/16 04:27:32;;;;;;;10.23;5.10;;;3.40;99.90;;;;;;5113971;28;20162;-76
2021/04/16 04:29:58;;;;;;;7.83;5.53;;;3.30;99.90;;;;;;5113939;28;20172;-76
2021/04/16 04:32:23;;;;;;;6.83;5.33;;;3.30;99.90;;;;;;5113478;28;20213;-76
2021/04/16 04:34:49;;;;;;;7.70;5.27;;;3.40;99.90;;;;;;5112530;28;20174;-77
2021/04/16 04:37:14;;;;;;;7.17;5.97;;;3.40;99.90;;;;;;5113684;28;20177;-76
2021/04/16 04:39:43;;;;;;;7.23;5.73;;;3.40;99.90;;;;;;5112766;28;20173;-76
2021/04/16 04:42:09;;;;;;;9.20;5.07;;;3.30;99.90;;;;;;5112613;28;20197;-76
2021/04/16 04:44:35;;;;;;;11.97;5.73;;;3.30;99.90;;;;;;5126499;27;20192;-76
2021/04/16 04:47:00;;;;;;;7.33;5.47;;;3.30;99.90;;;;;;5091922;28;20685;-76
2021/04/16 04:49:26;;;;;;;8.13;5.37;;;3.30;99.90;;;;;;5093383;28;20210;-76
2021/04/16 04:52:10;;;;;;;7.70;5.60;;;3.30;99.90;;;;;;5091813;28;20233;-76
2021/04/16 04:54:36;;;;;;;11.57;5.40;;;3.40;99.90;;;;;;5092227;28;20166;-76
2021/04/16 04:57:01;;;;;;;10.43;5.03;;;3.50;99.90;;;;;;5093291;28;20784;-76
2021/04/16 04:59:27;;;;;;;8.10;5.00;;;3.50;99.90;;;;;;5092031;28;20189;-76
2021/04/16 05:01:52;;;;;;;13.33;5.17;;;3.50;99.90;;;;;;5093039;28;20174;-76
2021/04/16 05:04:18;;;;;;;9.43;5.13;;;3.50;99.90;;;;;;5111024;28;20185;-76
2021/04/16 05:06:44;;;;;;;7.40;4.70;;;3.30;99.90;;;;;;5113709;28;20610;-76
2021/04/16 05:09:09;;;;;;;5.97;5.37;;;3.30;99.90;;;;;;5112279;28;20212;-76
2021/04/16 05:11:35;;;;;;;7.27;5.07;;;3.30;99.90;;;;;;5111976;28;20676;-76
2021/04/16 05:14:00;;;;;;;11.00;5.17;;;3.50;99.90;;;;;;5111815;28;20629;-76
2021/04/16 05:16:26;;;;;;;7.23;5.17;;;3.60;99.90;;;;;;5113149;28;20161;-76
2021/04/16 05:18:53;;;;;;;5.73;5.20;;;3.80;99.90;;;;;;5111953;28;20166;-77
2021/04/16 05:21:19;;;;;;;8.10;5.57;;;4.00;99.90;;;;;;5113157;28;20690;-76
2021/04/16 05:23:45;;;;;;;9.07;5.03;;;4.10;99.90;;;;;;5113668;28;20166;-76
2021/04/16 05:26:10;;;;;;;6.93;5.00;;;4.10;99.90;;;;;;5113724;28;20170;-76
2021/04/16 05:28:36;;;;;;;13.23;5.80;;;4.20;99.90;;;;;;5113163;28;20264;-76
2021/04/16 05:31:02;;;;;;;6.97;4.80;;;4.40;99.90;;;;;;5114670;28;20260;-76
2021/04/16 05:33:27;;;;;;;5.97;5.47;;;4.50;99.90;;;;;;5114960;28;20266;-76
2021/04/16 05:35:53;;;;;;;5.90;5.30;;;4.60;99.90;;;;;;5081917;28;20237;-76
2021/04/16 05:38:19;;;;;;;6.33;4.53;;;4.70;99.90;;;;;;5098825;28;20178;-76
2021/04/16 05:40:45;;;;;;;5.73;5.10;;;4.60;99.90;;;;;;5115206;28;20231;-76
2021/04/16 05:43:10;;;;;;;5.27;4.63;;;4.40;99.90;;;;;;5115272;28;20181;-76
2021/04/16 05:45:36;;;;;;;8.60;6.33;;;4.20;99.90;;;;;;5115205;28;20178;-76
2021/04/16 05:48:02;;;;;;;9.23;4.97;;;4.30;99.90;;;;;;5116601;28;20193;-76
2021/04/16 05:50:27;;;;;;;10.60;5.00;;;4.60;99.90;;;;;;5116703;28;20161;-77
2021/04/16 05:52:54;;;;;;;8.67;4.70;;;4.80;99.90;;;;;;5116301;28;20283;-76
2021/04/16 05:55:20;;;;;;;8.33;5.00;;;5.10;99.90;;;;;;5116598;28;20175;-76
2021/04/16 05:57:45;;;;;;;5.80;4.67;;;5.30;99.90;;;;;;5116143;28;20603;-76
2021/04/16 06:00:12;;;;;;;4.90;4.30;;;5.50;99.90;;;;;;5116350;28;20510;-76
2021/04/16 06:02:41;;;;;;;8.53;5.37;;;5.60;99.90;;;;;;5114690;28;20177;-76
2021/04/16 06:05:11;;;;;;;6.63;5.13;;;5.70;99.90;;;;;;5116274;28;20184;-76
2021/04/16 06:07:36;;;;;;;6.07;4.77;;;5.60;99.90;;;;;;5115078;28;20172;-76
2021/04/16 06:10:04;;;;;;;5.53;5.03;;;5.60;99.90;;;;;;5115044;28;20178;-76
2021/04/16 06:12:29;;;;;;;5.10;4.50;;;5.60;99.90;;;;;;5115699;28;20231;-76
2021/04/16 06:14:55;;;;;;;7.63;5.07;;;5.50;99.90;;;;;;5115981;28;20389;-76
2021/04/16 06:17:20;;;;;;;11.10;4.87;;;5.40;99.90;;;;;;5115784;28;20170;-75
2021/04/16 06:19:49;;;;;;;4.97;3.90;;;5.40;99.90;;;;;;5114918;28;20199;-76
2021/04/16 06:22:16;;;;;;;10.07;5.07;;;5.60;99.90;;;;;;5116075;28;20170;-76
2021/04/16 06:24:42;;;;;;;11.97;4.67;;;5.70;99.90;;;;;;5116028;28;20166;-76
2021/04/16 06:27:08;;;;;;;5.40;4.27;;;5.90;99.90;;;;;;5114703;28;20165;-76
2021/04/16 06:29:35;;;;;;;5.97;4.73;;;6.00;99.90;;;;;;5115844;28;20639;-76
2021/04/16 06:32:01;;;;;;;11.97;4.57;;;6.30;99.90;;;;;;5115175;28;20300;-76
2021/04/16 06:34:27;;;;;;;6.73;4.23;;;6.50;99.90;;;;;;5115845;28;20170;-76
2021/04/16 06:36:53;;;;;;;8.57;4.50;;;6.40;99.90;;;;;;5115842;28;20166;-76
2021/04/16 06:39:19;;;;;;;5.73;4.77;;;6.60;99.90;;;;;;5115688;28;20219;-76
2021/04/16 06:41:46;;;;;;;7.47;4.10;;;6.70;99.90;;;;;;5114112;28;20626;-76
2021/04/16 06:44:22;;;;;;;5.17;4.40;;;6.90;99.90;;;;;;5114168;28;20554;-76
2021/04/16 06:47:07;;;;;;;15.03;5.57;;;6.90;99.90;;;;;;5114316;28;20562;-76
2021/04/16 06:49:34;;;;;;;6.43;3.77;;;6.70;99.90;;;;;;5115517;28;20141;-76
2021/04/16 06:52:25;;;;;;;8.87;4.63;;;6.90;99.90;;;;;;5113757;28;20603;-76
2021/04/16 06:54:59;;;;;;;10.07;4.20;;;7.20;99.90;;;;;;5115462;28;20154;-76
2021/04/16 06:57:46;;;;;;;5.38;4.15;;;8.60;99.90;;;;;;5114885;28;20189;-76
2021/04/16 07:00:12;;;;;;;6.70;3.80;;;10.80;99.90;;;;;;5115364;28;20240;-76
2021/04/16 07:02:46;;;;;;;14.52;4.53;;;13.10;99.90;;;;;;5119221;27;20572;-76
2021/04/16 07:05:29;;;;;;;9.73;3.88;;;14.80;99.90;;;;;;5135711;27;20153;-76
2021/04/16 07:07:57;;;;;;;7.45;3.50;;;16.90;99.90;;;;;;5135697;27;20232;-77
2021/04/16 07:10:30;;;;;;;5.18;3.42;;;18.60;96.20;;;;;;5133219;27;20165;-77
2021/04/16 07:12:58;;;;;;;7.03;3.88;;;18.80;92.10;;;;;;5113462;28;20236;-77
2021/04/16 07:15:35;;;;;;;7.97;3.55;;;18.40;91.60;;;;;;5114983;28;20249;-77
2021/04/16 07:18:03;;;;;;;8.38;3.15;;;17.50;91.50;;;;;;5115031;28;20157;-77
2021/04/16 07:20:29;;;;;;;11.15;2.97;;;19.10;91.50;;;;;;5113483;28;20215;-77
2021/04/16 07:22:56;;;;;;;6.53;3.25;;;20.00;88.70;;;;;;5113645;28;20553;-77
2021/04/16 07:25:41;;;;;;;4.20;3.83;;;19.60;86.60;;;;;;5114610;28;20248;-77
2021/04/16 07:28:12;;;;;;;4.07;3.22;;;18.50;88.60;;;;;;5114798;28;20161;-77
2021/04/16 07:30:48;;;;;;;3.78;3.10;;;19.80;87.60;;;;;;5114431;28;20626;-76
2021/04/16 07:33:41;;;;;;;3.38;3.08;;;20.00;82.20;;;;;;5114339;28;20204;-76
2021/04/16 07:36:27;;;;;;;3.38;3.08;;;21.20;81.00;;;;;;5113000;28;20157;-76
2021/04/16 07:39:15;;;;;;;6.75;3.25;;;22.50;77.60;;;;;;5114409;28;20605;-75
2021/04/16 07:41:44;;;;;;;5.15;3.53;;;22.50;77.60;;;;;;5113971;28;20172;-74
2021/04/16 07:44:56;;;;;;;4.80;3.65;;;23.20;76.00;;;;;;5113045;28;20579;-74
2021/04/16 07:47:25;;;;;;;8.13;3.40;;;22.20;75.90;;;;;;5107902;28;20193;-74
2021/04/16 07:50:10;;;;;;;4.18;3.13;;;17.50;82.10;;;;;;5114331;28;20172;-74
2021/04/16 07:52:40;;;;;;;9.85;4.07;;;15.30;88.00;;;;;;5112444;28;20645;-74
2021/04/16 07:55:28;;;;;;;5.60;3.25;;;14.10;92.00;;;;;;5113914;28;20539;-73
2021/04/16 07:58:15;;;;;;;4.00;3.55;;;13.90;92.70;;;;;;5114327;28;20150;-74
2021/04/16 08:00:43;;;;;;;3.60;3.30;;;15.60;92.50;;;;;;5112910;28;20509;-74
2021/04/16 08:03:22;;;;;;;8.27;3.65;;;17.50;90.50;;;;;;5114215;28;20513;-75
2021/04/16 08:05:53;;;;;;;8.30;3.38;;;18.40;85.40;;;;;;5114370;28;20188;-76
2021/04/16 08:08:41;;;;;;;9.48;3.83;;;18.70;84.90;;;;;;5113830;28;20150;-76
2021/04/16 08:11:15;;;;;;;4.18;3.28;;;18.00;86.30;;;;;;5113300;28;20178;-73
2021/04/16 08:13:45;;;;;;;8.13;3.45;;;17.20;86.70;;;;;;5114098;28;20189;-74
2021/04/16 08:16:16;;;;;;;6.22;3.65;;;14.90;91.60;;;;;;5113011;28;20214;-74
2021/04/16 08:18:45;;;;;;;5.50;3.58;;;13.40;93.10;;;;;;5113860;28;20207;-76
2021/04/16 08:21:21;;;;;;;11.15;3.50;;;11.80;95.70;;;;;;5112506;28;20252;-76
2021/04/16 08:23:52;;;;;;;4.15;3.75;;;11.60;97.30;;;;;;5114226;28;20160;-76
2021/04/16 08:26:21;;;;;;;4.32;3.90;;;11.40;97.90;;;;;;5113789;28;20161;-76
2021/04/16 08:29:04;;;;;;;7.95;4.05;;;11.70;98.50;;;;;;5113755;28;20212;-76
2021/04/16 08:31:40;;;;;;;6.55;3.67;;;13.20;96.90;;;;;;5113528;28;20158;-76
2021/04/16 08:34:12;;;;;;;4.35;3.60;;;13.90;95.00;;;;;;5113713;28;20211;-76
2021/04/16 08:36:40;;;;;;;7.63;3.42;;;15.10;94.60;;;;;;5113824;28;20158;-74
2021/04/16 08:39:20;;;;;;;4.88;3.22;;;15.30;93.90;;;;;;5112933;28;20173;-73
2021/04/16 08:41:50;;;;;;;5.57;3.60;;;14.80;93.90;;;;;;5112861;28;20659;-74
2021/04/16 08:44:17;;;;;;;6.15;3.65;;;14.10;94.50;;;;;;5113667;28;20180;-74
2021/04/16 08:46:47;;;;;;;4.65;3.33;;;13.80;95.00;;;;;;5113165;28;20249;-76
2021/04/16 08:49:25;;;;;;;6.47;3.92;;;13.60;95.30;;;;;;5113689;28;20660;-77
2021/04/16 08:51:58;;;;;;;5.97;3.75;;;13.90;95.20;;;;;;5112183;28;20657;-76
2021/04/16 08:54:30;;;;;;;6.18;3.88;;;14.40;95.10;;;;;;5112400;28;20187;-76
2021/04/16 08:57:05;;;;;;;7.38;3.67;;;14.20;94.70;;;;;;5112291;28;20201;-76
2021/04/16 08:59:55;;;;;;;6.45;3.63;;;14.70;94.30;;;;;;5113644;28;20600;-76
2021/04/16 09:02:32;;;;;;;6.15;3.72;;;14.80;94.80;;;;;;5070445;28;20188;-76
2021/04/16 09:05:03;;;;;;;5.70;3.42;;;17.20;93.70;;;;;;5114352;28;20153;-74
2021/04/16 09:07:40;;;;;;;7.05;3.53;;;19.40;90.60;;;;;;5116148;28;20173;-76
2021/04/16 09:10:31;;;;;;;4.28;3.17;;;20.30;87.80;;;;;;5115716;28;20169;-76
2021/04/16 09:13:02;;;;;;;3.33;3.03;;;22.80;83.30;;;;;;5106370;28;20213;-76
2021/04/16 09:15:34;;;;;;;3.92;3.58;;;22.40;81.00;;;;;;5116092;28;20196;-76
2021/04/16 09:17:59;;;;;;;5.55;3.28;;;21.50;80.60;;;;;;5115590;28;20619;-76
2021/04/16 09:20:32;;;;;;;4.70;3.63;;;22.80;77.70;;;;;;5117529;28;20093;-77
2021/04/16 09:22:58;;;;;;;5.50;3.08;;;23.20;79.00;;;;;;5116891;28;20623;-74
2021/04/16 09:25:44;;;;;;;6.50;2.97;;;23.80;75.10;;;;;;5115824;28;20208;-75
2021/04/16 09:28:21;;;;;;;5.22;2.67;;;24.30;73.90;;;;;;5116867;28;20169;-74
2021/04/16 09:31:03;;;;;;;4.43;2.95;;;24.70;70.20;;;;;;5116511;28;20177;-73
2021/04/16 09:33:47;;;;;;;5.07;2.92;;;24.30;71.40;;;;;;5115581;28;20209;-74
2021/04/16 09:36:38;;;;;;;4.80;2.38;;;22.00;72.50;;;;;;5116940;28;20680;-74
2021/04/16 09:39:14;;;;;;;7.03;3.20;;;21.10;77.40;;;;;;5116288;28;20169;-73
2021/04/16 09:41:45;;;;;;;7.80;3.40;;;19.70;77.80;;;;;;5116632;28;20247;-76
2021/04/16 09:44:29;;;;;;;4.55;3.53;;;19.20;80.90;;;;;;5116663;28;20183;-76
2021/04/16 09:47:01;;;;;;;5.15;2.85;;;21.20;77.70;;;;;;5115389;28;20549;-76
2021/04/16 09:49:31;;;;;;;2.75;2.53;;;18.30;79.00;;;;;;5115060;28;20173;-76
2021/04/16 09:52:18;;;;;;;3.63;2.60;;;17.80;81.00;;;;;;5115168;28;20195;-76
2021/04/16 09:54:44;;;;;;;4.88;2.95;;;17.20;82.40;;;;;;5105164;28;20268;-78
2021/04/16 09:57:09;;;;;;;6.03;3.30;;;18.70;81.60;;;;;;5114844;28;20296;-76
2021/04/16 09:59:37;;;;;;;4.13;2.67;;;22.00;75.50;;;;;;5116345;28;20759;-76
2021/04/16 10:02:11;;;;;;;4.40;2.92;;;20.70;74.80;;;;;;5116155;28;20174;-78
2021/04/16 10:05:06;;;;;;;6.53;3.03;;;20.10;76.70;;;;;;5116373;28;20547;-80
2021/04/16 10:07:51;;;;;;;2.90;2.70;;;20.60;75.70;;;;;;5107490;28;20178;-78
2021/04/16 10:10:38;;;;;;;4.18;2.65;;;22.70;75.10;;;;;;5099355;28;20157;-77
2021/04/16 10:13:20;;;;;;;3.33;2.97;;;23.80;69.60;;;;;;5115822;28;20200;-78
2021/04/16 10:15:48;;;;;;;2.92;2.60;;;22.60;69.80;;;;;;5114759;28;20700;-78
2021/04/16 10:18:33;;;;;;;2.97;2.67;;;21.80;73.30;;;;;;5115744;28;20166;-79
2021/04/16 10:21:15;;;;;;;2.95;2.38;;;22.90;68.90;;;;;;5114284;28;20602;-77
2021/04/16 10:54:41;;;;;;;3.13;2.38;;;15.10;81.30;;;;;;5114346;28;20572;-78
2021/04/16 12:39:09;;;;;;;7.57;2.30;;;15.20;78.60;;;;;;5112741;28;20183;-75
2021/04/16 12:41:40;;;;;;;2.78;2.47;;;14.20;79.80;;;;;;5115822;28;20169;-75
2021/04/16 12:44:07;;;;;;;4.43;2.63;;;14.30;80.00;;;;;;5117011;28;20294;-75
2021/04/16 12:46:36;;;;;;;3.00;2.63;;;14.40;79.90;;;;;;5117716;28;20176;-75
2021/04/16 12:49:02;;;;;;;6.03;2.80;;;15.10;79.50;;;;;;5115983;28;20169;-75
2021/04/16 12:51:28;;;;;;;2.85;2.60;;;14.60;77.60;;;;;;5117554;28;20165;-75
2021/04/16 12:53:53;;;;;;;5.28;2.38;;;14.00;79.80;;;;;;5117875;28;20161;-74
2021/04/16 12:56:24;;;;;;;3.25;2.58;;;13.90;80.80;;;;;;5115716;28;20621;-75
2021/04/16 12:58:49;;;;;;;4.10;2.40;;;14.40;81.80;;;;;;5115990;28;20158;-75
2021/04/16 13:01:28;;;;;;;4.45;2.22;;;15.00;80.20;;;;;;5116205;28;20264;-75
2021/04/16 13:03:55;;;;;;;6.13;2.45;;;14.50;78.80;;;;;;5115747;28;20613;-75
2021/04/16 13:06:25;;;;;;;2.67;2.47;;;14.00;79.30;;;;;;5117046;28;20568;-75
2021/04/16 13:08:53;;;;;;;2.65;2.45;;;13.90;80.30;;;;;;5116986;28;20530;-74
2021/04/16 13:11:19;;;;;;;3.05;2.03;;;13.60;80.40;;;;;;5115947;28;20256;-75
2021/04/16 13:13:45;;;;;;;2.10;1.98;;;13.60;81.00;;;;;;5117354;28;20204;-74
2021/04/16 13:16:11;;;;;;;2.70;2.17;;;13.30;80.30;;;;;;5115524;28;20267;-74
2021/04/16 13:18:43;;;;;;;21.80;3.55;;;13.30;81.80;;;;;;5117350;28;20197;-75
2021/04/16 13:21:21;;;;;;;2.40;2.03;;;13.90;81.70;;;;;;5117338;28;20168;-75
2021/04/16 13:23:47;;;;;;;2.40;2.20;;;14.10;79.50;;;;;;5117518;28;20251;-74
2021/04/16 13:26:13;;;;;;;2.40;2.20;;;13.80;78.80;;;;;;5116724;28;20185;-76
2021/04/16 13:28:38;;;;;;;5.25;2.45;;;14.00;80.50;;;;;;5115803;28;20173;-74
2021/04/16 13:31:04;;;;;;;2.30;1.92;;;14.20;79.80;;;;;;5115978;28;20181;-75
2021/04/16 13:33:34;;;;;;;10.05;2.42;;;14.70;80.00;;;;;;5116114;28;20217;-75
2021/04/16 13:36:00;;;;;;;2.72;1.88;;;15.30;78.60;;;;;;5115013;28;20513;-74
2021/04/16 13:38:28;;;;;;;3.28;2.05;;;15.30;78.20;;;;;;5114281;28;20179;-75
2021/04/16 13:40:56;;;;;;;2.78;1.98;;;14.80;79.80;;;;;;5115654;28;20253;-75
2021/04/16 13:43:23;;;;;;;3.65;2.22;;;14.50;80.20;;;;;;5115475;28;20165;-75
2021/04/16 13:45:49;;;;;;;2.40;2.20;;;14.00;81.50;;;;;;5115371;28;20173;-76
2021/04/16 13:48:16;;;;;;;2.20;2.00;;;14.00;80.80;;;;;;5097153;28;20227;-75
2021/04/16 13:50:43;;;;;;;2.83;2.30;;;14.00;81.20;;;;;;5114823;28;20521;-75
2021/04/16 13:53:11;;;;;;;8.50;1.90;;;13.70;79.40;;;;;;5115325;28;20204;-75
2021/04/16 13:55:36;;;;;;;9.15;2.33;;;13.90;80.60;;;;;;5113637;28;20251;-75
2021/04/16 13:58:03;;;;;;;2.50;2.25;;;14.40;79.40;;;;;;5114966;28;20208;-75
2021/04/16 14:00:31;;;;;;;4.07;2.22;;;14.50;78.60;;;;;;5114068;28;20222;-74
2021/04/16 14:03:16;;;;;;;5.00;1.92;;;14.00;80.10;;;;;;5115153;28;20260;-74
2021/04/16 14:05:48;;;;;;;4.15;2.58;;;13.80;82.20;;;;;;5113808;28;20158;-74
2021/04/16 14:08:44;;;;;;;8.50;1.85;;;14.20;81.80;;;;;;5115110;28;20173;-75
2021/04/16 14:11:10;;;;;;;3.45;2.33;;;14.40;80.10;;;;;;5106661;28;20518;-74
2021/04/16 14:13:36;;;;;;;2.67;2.47;;;14.40;79.90;;;;;;5115133;28;20249;-75
2021/04/16 14:16:08;;;;;;;3.15;2.13;;;14.80;79.70;;;;;;5113419;28;20181;-75
2021/04/16 14:18:36;;;;;;;3.75;2.10;;;14.60;79.40;;;;;;5114890;28;20181;-74
2021/04/16 14:21:06;;;;;;;4.88;2.38;;;14.90;80.40;;;;;;5113545;28;20177;-76
2021/04/16 14:23:33;;;;;;;5.63;2.20;;;14.60;79.30;;;;;;5113713;28;20161;-75
2021/04/16 14:25:59;;;;;;;2.25;2.00;;;13.80;80.80;;;;;;5114333;28;20299;-74
2021/04/16 14:28:25;;;;;;;2.35;2.15;;;13.40;81.00;;;;;;5114985;28;20170;-74
2021/04/16 14:30:54;;;;;;;2.38;2.17;;;13.00;81.40;;;;;;5114917;28;20600;-75
2021/04/16 14:33:30;;;;;;;3.55;2.30;;;13.30;82.00;;;;;;5093094;28;591411;-75
2021/04/16 14:35:56;;;;;;;3.40;2.25;;;13.70;82.30;;;;;;5115470;28;20184;-75
2021/04/16 14:38:23;;;;;;;6.10;2.22;;;13.90;83.20;;;;;;5115634;28;20173;-75
2021/04/16 14:40:49;;;;;;;2.45;2.25;;;14.00;80.00;;;;;;5114325;28;20201;-74
2021/04/16 14:43:15;;;;;;;3.92;2.40;;;13.90;79.90;;;;;;5115741;28;20686;-75
2021/04/16 14:45:45;;;;;;;3.85;2.08;;;13.70;80.70;;;;;;5115445;28;20173;-75
2021/04/16 14:48:11;;;;;;;3.47;2.88;;;14.20;82.20;;;;;;5115387;28;20192;-74
2021/04/16 14:50:37;;;;;;;2.65;2.28;;;15.10;80.00;;;;;;5114251;28;20511;-75
2021/04/16 14:53:17;;;;;;;2.90;2.70;;;16.00;78.70;;;;;;5115444;28;20203;-76
2021/04/16 14:55:43;;;;;;;6.10;2.58;;;16.50;76.00;;;;;;5113934;28;20190;-75
2021/04/16 14:58:12;;;;;;;6.45;2.75;;;16.70;77.50;;;;;;5115278;28;20173;-75
2021/04/16 15:00:38;;;;;;;4.35;2.38;;;16.40;75.60;;;;;;5115084;28;20265;-74
2021/04/16 15:03:05;;;;;;;5.03;2.35;;;16.00;77.60;;;;;;5114204;28;20637;-75
2021/04/16 15:05:31;;;;;;;3.15;2.85;;;15.80;78.20;;;;;;5113788;28;20174;-75
2021/04/16 15:08:09;;;;;;;2.55;2.35;;;15.50;79.60;;;;;;5114790;28;20196;-75
2021/04/16 15:10:42;;;;;;;2.78;2.50;;;14.80;79.00;;;;;;5094841;28;20162;-75
2021/04/16 15:13:12;;;;;;;3.28;2.97;;;14.70;80.50;;;;;;5094799;28;20186;-75
2021/04/16 15:15:41;;;;;;;2.53;2.33;;;14.80;81.80;;;;;;5107503;28;20170;-74
2021/04/16 15:18:08;;;;;;;7.03;2.50;;;14.90;81.70;;;;;;5114865;28;20165;-75